sensor_id;sensor_type;location;lat;lon;timestamp;P1;durP1;ratioP1;P2;durP2;ratioP2
1218;SDS011;599;51.494;6.670;2022-08-19T00:01:38;12.27;;;11.17;;
1218;SDS011;599;51.494;6.670;2022-08-19T00:04:07;11.70;;;10.63;;
1218;SDS011;599;51.494;6.670;2022-08-19T00:06:37;13.33;;;12.10;;
1218;SDS011;599;51.494;6.670;2022-08-19T00:09:05;12.20;;;11.00;;
1218;SDS011;599;51.494;6.670;2022-08-19T00:11:35;13.20;;;10.90;;
1218;SDS011;599;51.494;6.670;2022-08-19T00:14:02;12.87;;;11.60;;
1218;SDS011;599;51.494;6.670;2022-08-19T00:16:31;12.53;;;11.23;;
1218;SDS011;599;51.494;6.670;2022-08-19T00:18:57;12.32;;;11.30;;
1218;SDS011;599;51.494;6.670;2022-08-19T00:21:24;13.40;;;12.10;;
1218;SDS011;599;51.494;6.670;2022-08-19T00:23:52;14.30;;;12.90;;
1218;SDS011;599;51.494;6.670;2022-08-19T00:26:19;13.37;;;12.27;;
1218;SDS011;599;51.494;6.670;2022-08-19T00:28:45;11.83;;;10.73;;
1218;SDS011;599;51.494;6.670;2022-08-19T00:31:12;16.63;;;12.17;;
1218;SDS011;599;51.494;6.670;2022-08-19T00:33:38;14.97;;;13.57;;
1218;SDS011;599;51.494;6.670;2022-08-19T00:36:05;14.27;;;12.97;;
1218;SDS011;599;51.494;6.670;2022-08-19T00:38:34;13.47;;;12.17;;
1218;SDS011;599;51.494;6.670;2022-08-19T00:41:03;13.80;;;12.53;;
1218;SDS011;599;51.494;6.670;2022-08-19T00:43:30;14.60;;;13.30;;
1218;SDS011;599;51.494;6.670;2022-08-19T00:45:55;13.77;;;12.47;;
1218;SDS011;599;51.494;6.670;2022-08-19T00:48:22;14.83;;;13.43;;
1218;SDS011;599;51.494;6.670;2022-08-19T00:50:48;17.27;;;15.67;;
1218;SDS011;599;51.494;6.670;2022-08-19T00:53:19;15.57;;;13.75;;
1218;SDS011;599;51.494;6.670;2022-08-19T00:55:48;15.73;;;14.35;;
1218;SDS011;599;51.494;6.670;2022-08-19T00:58:17;15.40;;;13.93;;
1218;SDS011;599;51.494;6.670;2022-08-19T01:00:47;16.33;;;14.83;;
1218;SDS011;599;51.494;6.670;2022-08-19T01:03:15;15.27;;;13.68;;
1218;SDS011;599;51.494;6.670;2022-08-19T01:05:44;15.63;;;14.13;;
1218;SDS011;599;51.494;6.670;2022-08-19T01:08:13;16.02;;;13.70;;
1218;SDS011;599;51.494;6.670;2022-08-19T01:10:48;13.77;;;12.48;;
1218;SDS011;599;51.494;6.670;2022-08-19T01:13:19;15.00;;;13.70;;
1218;SDS011;599;51.494;6.670;2022-08-19T01:15:50;16.20;;;14.70;;
1218;SDS011;599;51.494;6.670;2022-08-19T01:18:24;16.30;;;14.90;;
1218;SDS011;599;51.494;6.670;2022-08-19T01:20:52;18.13;;;16.27;;
1218;SDS011;599;51.494;6.670;2022-08-19T01:23:22;16.58;;;14.77;;
1218;SDS011;599;51.494;6.670;2022-08-19T01:26:08;16.60;;;15.10;;
1218;SDS011;599;51.494;6.670;2022-08-19T01:28:37;19.20;;;17.07;;
1218;SDS011;599;51.494;6.670;2022-08-19T01:31:03;16.75;;;15.30;;
1218;SDS011;599;51.494;6.670;2022-08-19T01:33:31;16.77;;;14.48;;
1218;SDS011;599;51.494;6.670;2022-08-19T01:36:04;18.30;;;16.43;;
1218;SDS011;599;51.494;6.670;2022-08-19T01:38:38;17.73;;;16.02;;
1218;SDS011;599;51.494;6.670;2022-08-19T01:41:08;20.65;;;16.55;;
1218;SDS011;599;51.494;6.670;2022-08-19T01:43:37;18.60;;;16.90;;
1218;SDS011;599;51.494;6.670;2022-08-19T01:46:04;19.70;;;17.77;;
1218;SDS011;599;51.494;6.670;2022-08-19T01:48:41;19.73;;;17.83;;
1218;SDS011;599;51.494;6.670;2022-08-19T01:51:08;16.98;;;15.43;;
1218;SDS011;599;51.494;6.670;2022-08-19T01:53:35;18.15;;;15.73;;
1218;SDS011;599;51.494;6.670;2022-08-19T01:56:03;16.38;;;14.88;;
1218;SDS011;599;51.494;6.670;2022-08-19T01:58:32;17.17;;;15.45;;
1218;SDS011;599;51.494;6.670;2022-08-19T02:01:04;17.67;;;15.90;;
1218;SDS011;599;51.494;6.670;2022-08-19T02:03:31;18.40;;;16.80;;
1218;SDS011;599;51.494;6.670;2022-08-19T02:05:58;17.90;;;16.20;;
1218;SDS011;599;51.494;6.670;2022-08-19T02:08:26;18.40;;;16.58;;
1218;SDS011;599;51.494;6.670;2022-08-19T02:10:52;17.35;;;15.73;;
1218;SDS011;599;51.494;6.670;2022-08-19T02:13:19;18.33;;;16.52;;
1218;SDS011;599;51.494;6.670;2022-08-19T02:15:45;16.70;;;15.10;;
1218;SDS011;599;51.494;6.670;2022-08-19T02:18:11;17.20;;;15.57;;
1218;SDS011;599;51.494;6.670;2022-08-19T02:20:37;17.50;;;15.73;;
1218;SDS011;599;51.494;6.670;2022-08-19T02:23:05;17.08;;;15.52;;
1218;SDS011;599;51.494;6.670;2022-08-19T02:25:32;17.88;;;16.08;;
1218;SDS011;599;51.494;6.670;2022-08-19T02:27:58;17.80;;;16.00;;
1218;SDS011;599;51.494;6.670;2022-08-19T02:30:24;19.77;;;17.88;;
1218;SDS011;599;51.494;6.670;2022-08-19T02:32:50;19.70;;;17.57;;
1218;SDS011;599;51.494;6.670;2022-08-19T02:35:17;18.93;;;17.17;;
1218;SDS011;599;51.494;6.670;2022-08-19T02:37:44;18.35;;;16.45;;
1218;SDS011;599;51.494;6.670;2022-08-19T02:40:29;16.63;;;15.13;;
1218;SDS011;599;51.494;6.670;2022-08-19T02:43:00;19.58;;;17.52;;
1218;SDS011;599;51.494;6.670;2022-08-19T02:45:33;19.03;;;17.13;;
1218;SDS011;599;51.494;6.670;2022-08-19T02:48:01;20.30;;;18.40;;
1218;SDS011;599;51.494;6.670;2022-08-19T02:50:28;19.73;;;17.80;;
1218;SDS011;599;51.494;6.670;2022-08-19T02:52:54;21.33;;;17.17;;
1218;SDS011;599;51.494;6.670;2022-08-19T02:55:20;20.03;;;17.50;;
1218;SDS011;599;51.494;6.670;2022-08-19T02:57:46;19.87;;;18.00;;
1218;SDS011;599;51.494;6.670;2022-08-19T03:00:13;21.17;;;19.10;;
1218;SDS011;599;51.494;6.670;2022-08-19T03:02:40;20.77;;;18.10;;
1218;SDS011;599;51.494;6.670;2022-08-19T03:05:06;19.30;;;17.48;;
1218;SDS011;599;51.494;6.670;2022-08-19T03:07:34;20.30;;;18.40;;
1218;SDS011;599;51.494;6.670;2022-08-19T03:10:02;19.60;;;17.60;;
1218;SDS011;599;51.494;6.670;2022-08-19T03:12:28;20.80;;;18.40;;
1218;SDS011;599;51.494;6.670;2022-08-19T03:14:54;19.80;;;18.00;;
1218;SDS011;599;51.494;6.670;2022-08-19T03:17:20;22.70;;;20.53;;
1218;SDS011;599;51.494;6.670;2022-08-19T03:19:46;24.50;;;20.10;;
1218;SDS011;599;51.494;6.670;2022-08-19T03:22:12;27.37;;;24.53;;
1218;SDS011;599;51.494;6.670;2022-08-19T03:24:39;24.65;;;22.35;;
1218;SDS011;599;51.494;6.670;2022-08-19T03:27:05;26.30;;;23.80;;
1218;SDS011;599;51.494;6.670;2022-08-19T03:29:31;26.50;;;23.80;;
1218;SDS011;599;51.494;6.670;2022-08-19T03:31:58;26.25;;;23.65;;
1218;SDS011;599;51.494;6.670;2022-08-19T03:34:27;29.25;;;26.15;;
1218;SDS011;599;51.494;6.670;2022-08-19T03:36:56;31.58;;;27.75;;
1218;SDS011;599;51.494;6.670;2022-08-19T03:39:24;32.25;;;28.55;;
1218;SDS011;599;51.494;6.670;2022-08-19T03:41:51;29.33;;;26.33;;
1218;SDS011;599;51.494;6.670;2022-08-19T03:44:22;34.95;;;31.20;;
1218;SDS011;599;51.494;6.670;2022-08-19T03:46:49;37.90;;;33.60;;
1218;SDS011;599;51.494;6.670;2022-08-19T03:49:18;36.67;;;32.77;;
1218;SDS011;599;51.494;6.670;2022-08-19T03:51:46;36.85;;;31.40;;
1218;SDS011;599;51.494;6.670;2022-08-19T03:54:14;41.78;;;35.92;;
1218;SDS011;599;51.494;6.670;2022-08-19T03:56:44;41.65;;;34.33;;
1218;SDS011;599;51.494;6.670;2022-08-19T03:59:14;42.55;;;35.83;;
1218;SDS011;599;51.494;6.670;2022-08-19T04:01:50;50.57;;;40.30;;
1218;SDS011;599;51.494;6.670;2022-08-19T04:04:26;43.60;;;37.80;;
1218;SDS011;599;51.494;6.670;2022-08-19T04:06:52;49.03;;;39.10;;
1218;SDS011;599;51.494;6.670;2022-08-19T04:09:19;40.72;;;36.30;;
1218;SDS011;599;51.494;6.670;2022-08-19T04:11:46;39.35;;;33.05;;
1218;SDS011;599;51.494;6.670;2022-08-19T04:14:23;37.75;;;33.30;;
1218;SDS011;599;51.494;6.670;2022-08-19T04:16:55;49.90;;;37.72;;
1218;SDS011;599;51.494;6.670;2022-08-19T04:19:22;44.28;;;38.05;;
1218;SDS011;599;51.494;6.670;2022-08-19T04:21:49;47.33;;;39.67;;
1218;SDS011;599;51.494;6.670;2022-08-19T04:24:18;43.28;;;38.58;;
1218;SDS011;599;51.494;6.670;2022-08-19T04:26:45;46.60;;;40.97;;
1218;SDS011;599;51.494;6.670;2022-08-19T04:29:15;41.70;;;37.10;;
1218;SDS011;599;51.494;6.670;2022-08-19T04:31:50;47.88;;;38.65;;
1218;SDS011;599;51.494;6.670;2022-08-19T04:34:19;43.05;;;38.05;;
1218;SDS011;599;51.494;6.670;2022-08-19T04:36:47;47.33;;;39.28;;
1218;SDS011;599;51.494;6.670;2022-08-19T04:39:18;44.08;;;37.53;;
1218;SDS011;599;51.494;6.670;2022-08-19T04:42:09;45.05;;;38.83;;
1218;SDS011;599;51.494;6.670;2022-08-19T04:44:55;45.45;;;38.42;;
1218;SDS011;599;51.494;6.670;2022-08-19T04:47:27;47.10;;;39.55;;
1218;SDS011;599;51.494;6.670;2022-08-19T04:49:54;49.50;;;40.65;;
1218;SDS011;599;51.494;6.670;2022-08-19T04:52:20;50.50;;;42.30;;
1218;SDS011;599;51.494;6.670;2022-08-19T04:54:46;53.77;;;42.37;;
1218;SDS011;599;51.494;6.670;2022-08-19T04:57:11;55.00;;;45.40;;
1218;SDS011;599;51.494;6.670;2022-08-19T04:59:37;59.10;;;46.87;;
1218;SDS011;599;51.494;6.670;2022-08-19T05:02:04;58.65;;;45.25;;
1218;SDS011;599;51.494;6.670;2022-08-19T05:04:38;56.15;;;44.65;;
1218;SDS011;599;51.494;6.670;2022-08-19T05:07:04;47.65;;;40.40;;
1218;SDS011;599;51.494;6.670;2022-08-19T05:09:32;45.00;;;37.97;;
1218;SDS011;599;51.494;6.670;2022-08-19T05:11:59;41.92;;;37.03;;
1218;SDS011;599;51.494;6.670;2022-08-19T05:14:25;41.45;;;37.05;;
1218;SDS011;599;51.494;6.670;2022-08-19T05:16:51;44.27;;;39.47;;
1218;SDS011;599;51.494;6.670;2022-08-19T05:19:17;44.73;;;36.47;;
1218;SDS011;599;51.494;6.670;2022-08-19T05:22:01;42.72;;;36.00;;
1218;SDS011;599;51.494;6.670;2022-08-19T05:24:46;39.75;;;35.15;;
1218;SDS011;599;51.494;6.670;2022-08-19T05:27:12;41.80;;;37.17;;
1218;SDS011;599;51.494;6.670;2022-08-19T05:29:38;39.10;;;35.00;;
1218;SDS011;599;51.494;6.670;2022-08-19T05:32:05;43.90;;;39.10;;
1218;SDS011;599;51.494;6.670;2022-08-19T05:34:35;44.80;;;38.08;;
1218;SDS011;599;51.494;6.670;2022-08-19T05:37:03;48.67;;;40.10;;
1218;SDS011;599;51.494;6.670;2022-08-19T05:39:31;46.03;;;39.05;;
1218;SDS011;599;51.494;6.670;2022-08-19T05:42:00;47.63;;;42.42;;
1218;SDS011;599;51.494;6.670;2022-08-19T05:44:33;45.97;;;40.45;;
1218;SDS011;599;51.494;6.670;2022-08-19T05:47:06;59.75;;;44.10;;
1218;SDS011;599;51.494;6.670;2022-08-19T05:49:33;51.65;;;46.10;;
1218;SDS011;599;51.494;6.670;2022-08-19T05:52:04;51.75;;;46.05;;
1218;SDS011;599;51.494;6.670;2022-08-19T05:54:34;54.13;;;48.27;;
1218;SDS011;599;51.494;6.670;2022-08-19T05:57:05;57.43;;;48.90;;
1218;SDS011;599;51.494;6.670;2022-08-19T05:59:32;58.58;;;51.22;;
1218;SDS011;599;51.494;6.670;2022-08-19T06:02:00;62.33;;;50.78;;
1218;SDS011;599;51.494;6.670;2022-08-19T06:04:27;61.43;;;49.77;;
1218;SDS011;599;51.494;6.670;2022-08-19T06:06:54;58.20;;;51.50;;
1218;SDS011;599;51.494;6.670;2022-08-19T06:09:22;55.42;;;49.10;;
1218;SDS011;599;51.494;6.670;2022-08-19T06:11:50;64.13;;;52.40;;
1218;SDS011;599;51.494;6.670;2022-08-19T06:14:21;61.33;;;49.53;;
1218;SDS011;599;51.494;6.670;2022-08-19T06:16:51;59.70;;;50.80;;
1218;SDS011;599;51.494;6.670;2022-08-19T06:19:21;53.77;;;47.77;;
1218;SDS011;599;51.494;6.670;2022-08-19T06:21:50;54.87;;;49.03;;
1218;SDS011;599;51.494;6.670;2022-08-19T06:24:19;56.85;;;49.92;;
1218;SDS011;599;51.494;6.670;2022-08-19T06:26:49;57.50;;;49.43;;
1218;SDS011;599;51.494;6.670;2022-08-19T06:29:19;57.43;;;50.03;;
1218;SDS011;599;51.494;6.670;2022-08-19T06:31:49;57.00;;;49.43;;
1218;SDS011;599;51.494;6.670;2022-08-19T06:34:19;58.70;;;50.97;;
1218;SDS011;599;51.494;6.670;2022-08-19T06:36:48;57.17;;;50.93;;
1218;SDS011;599;51.494;6.670;2022-08-19T06:39:18;59.03;;;52.73;;
1218;SDS011;599;51.494;6.670;2022-08-19T06:41:51;63.97;;;54.50;;
1218;SDS011;599;51.494;6.670;2022-08-19T06:44:22;62.23;;;55.50;;
1218;SDS011;599;51.494;6.670;2022-08-19T06:46:51;64.57;;;57.67;;
1218;SDS011;599;51.494;6.670;2022-08-19T06:49:21;65.43;;;58.20;;
1218;SDS011;599;51.494;6.670;2022-08-19T06:51:49;66.27;;;59.37;;
1218;SDS011;599;51.494;6.670;2022-08-19T06:54:16;61.27;;;54.70;;
1218;SDS011;599;51.494;6.670;2022-08-19T06:56:44;60.83;;;54.40;;
1218;SDS011;599;51.494;6.670;2022-08-19T06:59:12;62.87;;;56.07;;
1218;SDS011;599;51.494;6.670;2022-08-19T07:01:44;64.40;;;53.73;;
1218;SDS011;599;51.494;6.670;2022-08-19T07:04:18;61.73;;;54.30;;
1218;SDS011;599;51.494;6.670;2022-08-19T07:06:47;61.30;;;51.93;;
1218;SDS011;599;51.494;6.670;2022-08-19T07:09:16;61.33;;;52.73;;
1218;SDS011;599;51.494;6.670;2022-08-19T07:11:44;57.53;;;51.57;;
1218;SDS011;599;51.494;6.670;2022-08-19T07:14:13;60.03;;;53.57;;
1218;SDS011;599;51.494;6.670;2022-08-19T07:16:43;56.83;;;51.00;;
1218;SDS011;599;51.494;6.670;2022-08-19T07:19:11;55.67;;;49.63;;
1218;SDS011;599;51.494;6.670;2022-08-19T07:21:38;52.57;;;47.10;;
1218;SDS011;599;51.494;6.670;2022-08-19T07:24:04;54.90;;;46.43;;
1218;SDS011;599;51.494;6.670;2022-08-19T07:26:32;53.10;;;47.60;;
1218;SDS011;599;51.494;6.670;2022-08-19T07:29:04;49.47;;;44.30;;
1218;SDS011;599;51.494;6.670;2022-08-19T07:31:31;55.57;;;44.60;;
1218;SDS011;599;51.494;6.670;2022-08-19T07:34:02;48.80;;;43.80;;
1218;SDS011;599;51.494;6.670;2022-08-19T07:36:35;49.30;;;43.60;;
1218;SDS011;599;51.494;6.670;2022-08-19T07:39:07;49.17;;;43.70;;
1218;SDS011;599;51.494;6.670;2022-08-19T07:41:38;49.87;;;44.50;;
1218;SDS011;599;51.494;6.670;2022-08-19T07:44:05;53.87;;;45.57;;
1218;SDS011;599;51.494;6.670;2022-08-19T07:46:34;46.33;;;41.60;;
1218;SDS011;599;51.494;6.670;2022-08-19T07:49:03;46.17;;;41.37;;
1218;SDS011;599;51.494;6.670;2022-08-19T07:51:31;45.30;;;39.07;;
1218;SDS011;599;51.494;6.670;2022-08-19T07:53:58;42.03;;;37.83;;
1218;SDS011;599;51.494;6.670;2022-08-19T07:56:25;42.70;;;38.10;;
1218;SDS011;599;51.494;6.670;2022-08-19T07:58:52;41.03;;;36.83;;
1218;SDS011;599;51.494;6.670;2022-08-19T08:01:23;40.63;;;36.30;;
1218;SDS011;599;51.494;6.670;2022-08-19T08:03:52;34.97;;;31.63;;
1218;SDS011;599;51.494;6.670;2022-08-19T08:06:39;34.03;;;30.47;;
1218;SDS011;599;51.494;6.670;2022-08-19T08:09:26;35.13;;;28.80;;
1218;SDS011;599;51.494;6.670;2022-08-19T08:12:09;31.47;;;28.17;;
1218;SDS011;599;51.494;6.670;2022-08-19T08:14:45;30.73;;;27.40;;
1218;SDS011;599;51.494;6.670;2022-08-19T08:17:16;32.00;;;28.37;;
1218;SDS011;599;51.494;6.670;2022-08-19T08:19:45;32.57;;;29.23;;
1218;SDS011;599;51.494;6.670;2022-08-19T08:22:14;35.17;;;31.37;;
1218;SDS011;599;51.494;6.670;2022-08-19T08:25:06;33.80;;;29.80;;
1218;SDS011;599;51.494;6.670;2022-08-19T08:27:40;33.87;;;30.30;;
1218;SDS011;599;51.494;6.670;2022-08-19T08:30:09;33.50;;;28.00;;
1218;SDS011;599;51.494;6.670;2022-08-19T08:32:40;33.43;;;29.83;;
1218;SDS011;599;51.494;6.670;2022-08-19T08:35:08;37.27;;;30.87;;
1218;SDS011;599;51.494;6.670;2022-08-19T08:37:39;31.87;;;28.57;;
1218;SDS011;599;51.494;6.670;2022-08-19T08:40:07;41.40;;;35.00;;
1218;SDS011;599;51.494;6.670;2022-08-19T08:42:53;44.73;;;34.50;;
1218;SDS011;599;51.494;6.670;2022-08-19T08:45:27;39.57;;;32.87;;
1218;SDS011;599;51.494;6.670;2022-08-19T08:47:55;39.10;;;32.60;;
1218;SDS011;599;51.494;6.670;2022-08-19T08:50:35;44.10;;;34.80;;
1218;SDS011;599;51.494;6.670;2022-08-19T08:53:08;39.53;;;34.23;;
1218;SDS011;599;51.494;6.670;2022-08-19T08:55:39;37.50;;;32.00;;
1218;SDS011;599;51.494;6.670;2022-08-19T08:58:12;37.53;;;32.07;;
1218;SDS011;599;51.494;6.670;2022-08-19T09:00:46;34.77;;;31.10;;
1218;SDS011;599;51.494;6.670;2022-08-19T09:03:21;28.63;;;25.43;;
1218;SDS011;599;51.494;6.670;2022-08-19T09:12:10;23.93;;;21.43;;
1218;SDS011;599;51.494;6.670;2022-08-19T09:15:00;26.70;;;23.17;;
1218;SDS011;599;51.494;6.670;2022-08-19T09:17:31;24.60;;;21.97;;
1218;SDS011;599;51.494;6.670;2022-08-19T09:22:59;29.70;;;26.60;;
1218;SDS011;599;51.494;6.670;2022-08-19T09:25:26;29.53;;;26.50;;
1218;SDS011;599;51.494;6.670;2022-08-19T09:27:52;30.03;;;26.80;;
1218;SDS011;599;51.494;6.670;2022-08-19T09:30:25;26.90;;;24.10;;
1218;SDS011;599;51.494;6.670;2022-08-19T09:32:54;26.50;;;23.70;;
1218;SDS011;599;51.494;6.670;2022-08-19T09:35:21;23.93;;;21.53;;
1218;SDS011;599;51.494;6.670;2022-08-19T09:37:50;25.17;;;22.57;;
1218;SDS011;599;51.494;6.670;2022-08-19T09:40:18;31.20;;;27.90;;
1218;SDS011;599;51.494;6.670;2022-08-19T09:42:45;28.07;;;25.20;;
1218;SDS011;599;51.494;6.670;2022-08-19T09:45:16;24.73;;;22.23;;
1218;SDS011;599;51.494;6.670;2022-08-19T09:47:45;28.43;;;25.60;;
1218;SDS011;599;51.494;6.670;2022-08-19T09:50:12;28.73;;;25.03;;
1218;SDS011;599;51.494;6.670;2022-08-19T09:52:38;25.83;;;23.23;;
1218;SDS011;599;51.494;6.670;2022-08-19T09:55:05;26.40;;;23.90;;
1218;SDS011;599;51.494;6.670;2022-08-19T09:57:34;25.90;;;23.20;;
1218;SDS011;599;51.494;6.670;2022-08-19T10:00:00;27.80;;;24.97;;
1218;SDS011;599;51.494;6.670;2022-08-19T10:02:32;27.23;;;24.40;;
1218;SDS011;599;51.494;6.670;2022-08-19T10:04:59;29.37;;;26.40;;
1218;SDS011;599;51.494;6.670;2022-08-19T10:07:44;25.23;;;22.73;;
1218;SDS011;599;51.494;6.670;2022-08-19T10:10:10;26.87;;;22.60;;
1218;SDS011;599;51.494;6.670;2022-08-19T10:12:36;25.27;;;22.57;;
1218;SDS011;599;51.494;6.670;2022-08-19T10:15:02;23.67;;;21.30;;
1218;SDS011;599;51.494;6.670;2022-08-19T10:17:31;30.37;;;27.37;;
1218;SDS011;599;51.494;6.670;2022-08-19T10:19:58;26.57;;;23.57;;
1218;SDS011;599;51.494;6.670;2022-08-19T10:22:24;28.60;;;25.67;;
1218;SDS011;599;51.494;6.670;2022-08-19T10:24:51;29.80;;;26.70;;
1218;SDS011;599;51.494;6.670;2022-08-19T10:27:17;30.17;;;27.03;;
1218;SDS011;599;51.494;6.670;2022-08-19T10:29:43;25.33;;;22.60;;
1218;SDS011;599;51.494;6.670;2022-08-19T10:32:09;29.43;;;24.73;;
1218;SDS011;599;51.494;6.670;2022-08-19T10:34:36;29.03;;;25.97;;
1218;SDS011;599;51.494;6.670;2022-08-19T10:37:03;23.60;;;21.20;;
1218;SDS011;599;51.494;6.670;2022-08-19T10:39:31;25.87;;;23.47;;
1218;SDS011;599;51.494;6.670;2022-08-19T10:41:59;23.97;;;21.83;;
1218;SDS011;599;51.494;6.670;2022-08-19T10:44:31;24.77;;;22.37;;
1218;SDS011;599;51.494;6.670;2022-08-19T10:46:58;24.70;;;22.10;;
1218;SDS011;599;51.494;6.670;2022-08-19T10:49:24;20.00;;;18.10;;
1218;SDS011;599;51.494;6.670;2022-08-19T10:51:51;29.53;;;22.67;;
1218;SDS011;599;51.494;6.670;2022-08-19T10:54:35;22.67;;;20.30;;
1218;SDS011;599;51.494;6.670;2022-08-19T10:57:19;22.57;;;20.20;;
1218;SDS011;599;51.494;6.670;2022-08-19T10:59:49;18.63;;;16.73;;
1218;SDS011;599;51.494;6.670;2022-08-19T11:02:15;15.60;;;14.00;;
1218;SDS011;599;51.494;6.670;2022-08-19T11:04:41;16.37;;;14.97;;
1218;SDS011;599;51.494;6.670;2022-08-19T11:07:07;19.07;;;17.37;;
1218;SDS011;599;51.494;6.670;2022-08-19T11:09:37;17.63;;;16.20;;
1218;SDS011;599;51.494;6.670;2022-08-19T11:12:05;15.70;;;14.30;;
1218;SDS011;599;51.494;6.670;2022-08-19T11:14:33;12.70;;;11.70;;
1218;SDS011;599;51.494;6.670;2022-08-19T11:17:00;14.20;;;13.00;;
1218;SDS011;599;51.494;6.670;2022-08-19T11:19:30;12.90;;;11.90;;
1218;SDS011;599;51.494;6.670;2022-08-19T11:21:57;12.97;;;11.87;;
1218;SDS011;599;51.494;6.670;2022-08-19T11:24:27;15.13;;;13.73;;
1218;SDS011;599;51.494;6.670;2022-08-19T11:26:54;14.07;;;12.50;;
1218;SDS011;599;51.494;6.670;2022-08-19T11:29:27;13.97;;;12.57;;
1218;SDS011;599;51.494;6.670;2022-08-19T11:31:54;15.40;;;13.80;;
1218;SDS011;599;51.494;6.670;2022-08-19T11:34:21;18.00;;;16.20;;
1218;SDS011;599;51.494;6.670;2022-08-19T11:36:50;14.83;;;13.23;;
1218;SDS011;599;51.494;6.670;2022-08-19T11:39:18;15.30;;;13.70;;
1218;SDS011;599;51.494;6.670;2022-08-19T11:41:46;11.90;;;10.70;;
1218;SDS011;599;51.494;6.670;2022-08-19T11:44:13;11.47;;;10.47;;
1218;SDS011;599;51.494;6.670;2022-08-19T11:46:40;10.93;;;9.90;;
1218;SDS011;599;51.494;6.670;2022-08-19T11:49:11;8.50;;;7.63;;
1218;SDS011;599;51.494;6.670;2022-08-19T11:51:38;10.43;;;9.40;;
1218;SDS011;599;51.494;6.670;2022-08-19T11:54:04;8.83;;;8.10;;
1218;SDS011;599;51.494;6.670;2022-08-19T11:56:31;8.13;;;7.43;;
1218;SDS011;599;51.494;6.670;2022-08-19T11:58:57;9.10;;;8.20;;
1218;SDS011;599;51.494;6.670;2022-08-19T12:01:25;11.70;;;10.53;;
1218;SDS011;599;51.494;6.670;2022-08-19T12:03:52;9.30;;;8.40;;
1218;SDS011;599;51.494;6.670;2022-08-19T12:06:21;8.80;;;8.00;;
1218;SDS011;599;51.494;6.670;2022-08-19T12:08:54;8.93;;;7.00;;
1218;SDS011;599;51.494;6.670;2022-08-19T12:11:25;7.77;;;6.97;;
1218;SDS011;599;51.494;6.670;2022-08-19T12:13:51;6.80;;;6.20;;
1218;SDS011;599;51.494;6.670;2022-08-19T12:16:22;8.70;;;6.97;;
1218;SDS011;599;51.494;6.670;2022-08-19T12:18:52;8.70;;;7.80;;
1218;SDS011;599;51.494;6.670;2022-08-19T12:21:22;7.20;;;6.30;;
1218;SDS011;599;51.494;6.670;2022-08-19T12:23:52;6.03;;;5.43;;
1218;SDS011;599;51.494;6.670;2022-08-19T12:26:20;8.67;;;6.90;;
1218;SDS011;599;51.494;6.670;2022-08-19T12:28:46;7.70;;;6.30;;
1218;SDS011;599;51.494;6.670;2022-08-19T12:31:13;10.27;;;6.63;;
1218;SDS011;599;51.494;6.670;2022-08-19T12:33:40;9.00;;;6.17;;
1218;SDS011;599;51.494;6.670;2022-08-19T12:36:08;7.57;;;6.27;;
1218;SDS011;599;51.494;6.670;2022-08-19T12:38:37;6.80;;;5.67;;
1218;SDS011;599;51.494;6.670;2022-08-19T12:41:04;10.00;;;8.10;;
1218;SDS011;599;51.494;6.670;2022-08-19T12:43:35;9.50;;;7.43;;
1218;SDS011;599;51.494;6.670;2022-08-19T12:46:03;10.30;;;6.40;;
1218;SDS011;599;51.494;6.670;2022-08-19T12:48:31;9.33;;;6.87;;
1218;SDS011;599;51.494;6.670;2022-08-19T12:50:58;10.43;;;6.20;;
1218;SDS011;599;51.494;6.670;2022-08-19T12:53:23;9.70;;;7.40;;
1218;SDS011;599;51.494;6.670;2022-08-19T12:55:56;7.90;;;7.07;;
1218;SDS011;599;51.494;6.670;2022-08-19T12:58:24;9.70;;;7.63;;
1218;SDS011;599;51.494;6.670;2022-08-19T13:00:52;7.80;;;6.80;;
1218;SDS011;599;51.494;6.670;2022-08-19T13:03:17;7.33;;;6.63;;
1218;SDS011;599;51.494;6.670;2022-08-19T13:05:43;6.17;;;5.57;;
1218;SDS011;599;51.494;6.670;2022-08-19T13:08:09;7.13;;;6.47;;
1218;SDS011;599;51.494;6.670;2022-08-19T13:10:36;7.43;;;6.30;;
1218;SDS011;599;51.494;6.670;2022-08-19T13:13:04;12.23;;;7.37;;
1218;SDS011;599;51.494;6.670;2022-08-19T13:15:33;9.20;;;7.97;;
1218;SDS011;599;51.494;6.670;2022-08-19T13:18:02;7.90;;;7.10;;
1218;SDS011;599;51.494;6.670;2022-08-19T13:20:28;8.03;;;7.30;;
1218;SDS011;599;51.494;6.670;2022-08-19T13:22:54;8.67;;;7.93;;
1218;SDS011;599;51.494;6.670;2022-08-19T13:25:22;9.27;;;7.37;;
1218;SDS011;599;51.494;6.670;2022-08-19T13:27:48;9.07;;;6.93;;
1218;SDS011;599;51.494;6.670;2022-08-19T13:30:16;9.57;;;6.90;;
1218;SDS011;599;51.494;6.670;2022-08-19T13:33:03;8.27;;;7.57;;
1218;SDS011;599;51.494;6.670;2022-08-19T13:35:51;9.97;;;9.13;;
1218;SDS011;599;51.494;6.670;2022-08-19T13:38:24;9.87;;;9.07;;
1218;SDS011;599;51.494;6.670;2022-08-19T13:40:50;10.73;;;9.77;;
1218;SDS011;599;51.494;6.670;2022-08-19T13:43:22;11.70;;;10.77;;
1218;SDS011;599;51.494;6.670;2022-08-19T13:45:51;11.63;;;10.43;;
1218;SDS011;599;51.494;6.670;2022-08-19T13:48:20;13.30;;;11.97;;
1218;SDS011;599;51.494;6.670;2022-08-19T13:50:47;11.50;;;10.53;;
1218;SDS011;599;51.494;6.670;2022-08-19T13:53:13;15.43;;;10.90;;
1218;SDS011;599;51.494;6.670;2022-08-19T13:55:40;12.07;;;11.03;;
1218;SDS011;599;51.494;6.670;2022-08-19T13:58:08;13.63;;;11.17;;
1218;SDS011;599;51.494;6.670;2022-08-19T14:00:36;10.90;;;9.73;;
1218;SDS011;599;51.494;6.670;2022-08-19T14:03:08;12.40;;;11.23;;
1218;SDS011;599;51.494;6.670;2022-08-19T14:05:35;10.90;;;9.90;;
1218;SDS011;599;51.494;6.670;2022-08-19T14:08:01;9.40;;;8.47;;
1218;SDS011;599;51.494;6.670;2022-08-19T14:10:28;8.80;;;7.97;;
1218;SDS011;599;51.494;6.670;2022-08-19T14:12:56;8.47;;;7.40;;
1218;SDS011;599;51.494;6.670;2022-08-19T14:15:23;13.73;;;8.10;;
1218;SDS011;599;51.494;6.670;2022-08-19T14:17:51;11.03;;;7.67;;
1218;SDS011;599;51.494;6.670;2022-08-19T14:20:17;8.67;;;7.87;;
1218;SDS011;599;51.494;6.670;2022-08-19T14:22:43;9.67;;;7.63;;
1218;SDS011;599;51.494;6.670;2022-08-19T14:25:12;8.40;;;6.63;;
1218;SDS011;599;51.494;6.670;2022-08-19T14:27:44;7.83;;;6.37;;
1218;SDS011;599;51.494;6.670;2022-08-19T14:30:12;7.63;;;6.93;;
1218;SDS011;599;51.494;6.670;2022-08-19T14:32:43;7.30;;;6.63;;
1218;SDS011;599;51.494;6.670;2022-08-19T14:35:09;10.50;;;9.50;;
1218;SDS011;599;51.494;6.670;2022-08-19T14:37:37;9.40;;;8.50;;
1218;SDS011;599;51.494;6.670;2022-08-19T14:40:04;12.13;;;8.63;;
1218;SDS011;599;51.494;6.670;2022-08-19T14:42:31;10.07;;;8.90;;
1218;SDS011;599;51.494;6.670;2022-08-19T14:44:57;10.00;;;8.90;;
1218;SDS011;599;51.494;6.670;2022-08-19T14:47:24;13.27;;;11.47;;
1218;SDS011;599;51.494;6.670;2022-08-19T14:49:52;11.83;;;10.63;;
1218;SDS011;599;51.494;6.670;2022-08-19T14:52:18;11.97;;;10.87;;
1218;SDS011;599;51.494;6.670;2022-08-19T14:54:44;13.17;;;11.87;;
1218;SDS011;599;51.494;6.670;2022-08-19T14:57:13;15.00;;;11.67;;
1218;SDS011;599;51.494;6.670;2022-08-19T14:59:41;11.27;;;10.17;;
1218;SDS011;599;51.494;6.670;2022-08-19T15:02:08;11.13;;;10.03;;
1218;SDS011;599;51.494;6.670;2022-08-19T15:04:35;12.40;;;10.77;;
1218;SDS011;599;51.494;6.670;2022-08-19T15:07:02;13.77;;;12.30;;
1218;SDS011;599;51.494;6.670;2022-08-19T15:09:30;13.13;;;11.77;;
1218;SDS011;599;51.494;6.670;2022-08-19T15:11:59;12.13;;;11.03;;
1218;SDS011;599;51.494;6.670;2022-08-19T15:14:27;16.70;;;11.50;;
1218;SDS011;599;51.494;6.670;2022-08-19T15:16:58;13.13;;;11.33;;
1218;SDS011;599;51.494;6.670;2022-08-19T15:19:24;12.00;;;10.43;;
1218;SDS011;599;51.494;6.670;2022-08-19T15:21:50;12.87;;;11.67;;
1218;SDS011;599;51.494;6.670;2022-08-19T15:24:16;12.37;;;11.10;;
1218;SDS011;599;51.494;6.670;2022-08-19T15:26:42;13.50;;;10.10;;